X  Tanca Dades meteorològiques de l'aviació METAR     LEBL Barcelona International Airport
Temperatura
17°C Temperatura
10°C Rosada
64% Humitat



Vent
14 KM/H
9 MPH
4 M/S
8 NUS



210°
SSO
Condicions actuals

Parcialment ennuvolat Parcialment ennuvolat
Pressió 1021.92 (hPa) - 30.18 (inHg)
Visibilitat 6.2 (milla) - 10 (km)
Aeroport
Codi aeroport LEBL

Ubicació: Barcelona International Airport
Distància: 14 (km)

Metar:
LEBL 241230Z 21008KT 170V240 9999 FEW030 17/10 Q1022 NOSIG

Temps: 24-11-2020 13:30 CET